Terminal Aerodrome Forecast
Issued by NWS Boston, MA

Home | Current Version | Previous Version | Text Only | Print | Product List | Glossary Off
Versions: 1 2 3 4 5 6 7 8 9 10 11 12 13 14
000 FTUS41 KBOX 260523 TAFORH TAF KORH 260523Z 2606/2706 27012KT P6SM SKC FM261400 29012G20KT P6SM SCT060 FM262300 31006KT P6SM SKC=

USA.gov is the U.S. government's official web portal to all federal, state and local government web resources and services.